sensor_id;sensor_type;location;lat;lon;timestamp;P1;durP1;ratioP1;P2;durP2;ratioP2
70052;SDS011;57398;52.032;4.376;2023-04-24T00:00:47;5.80;;;1.95;;
70052;SDS011;57398;52.032;4.376;2023-04-24T00:03:37;6.28;;;1.90;;
70052;SDS011;57398;52.032;4.376;2023-04-24T00:06:26;4.80;;;1.70;;
70052;SDS011;57398;52.032;4.376;2023-04-24T00:09:19;5.25;;;1.77;;
70052;SDS011;57398;52.032;4.376;2023-04-24T00:12:08;6.55;;;1.75;;
70052;SDS011;57398;52.032;4.376;2023-04-24T00:14:56;5.80;;;1.60;;
70052;SDS011;57398;52.032;4.376;2023-04-24T00:17:45;8.23;;;2.00;;
70052;SDS011;57398;52.032;4.376;2023-04-24T00:20:34;6.57;;;2.27;;
70052;SDS011;57398;52.032;4.376;2023-04-24T00:23:23;5.57;;;2.30;;
70052;SDS011;57398;52.032;4.376;2023-04-24T00:26:11;6.65;;;1.60;;
70052;SDS011;57398;52.032;4.376;2023-04-24T00:28:59;6.10;;;2.17;;
70052;SDS011;57398;52.032;4.376;2023-04-24T00:31:47;6.85;;;2.67;;
70052;SDS011;57398;52.032;4.376;2023-04-24T00:34:37;8.63;;;2.90;;
70052;SDS011;57398;52.032;4.376;2023-04-24T00:37:25;10.38;;;2.72;;
70052;SDS011;57398;52.032;4.376;2023-04-24T00:40:13;6.15;;;1.80;;
70052;SDS011;57398;52.032;4.376;2023-04-24T00:43:01;5.03;;;1.70;;
70052;SDS011;57398;52.032;4.376;2023-04-24T00:45:50;5.90;;;1.75;;
70052;SDS011;57398;52.032;4.376;2023-04-24T00:48:38;6.47;;;2.10;;
70052;SDS011;57398;52.032;4.376;2023-04-24T00:51:28;8.55;;;2.40;;
70052;SDS011;57398;52.032;4.376;2023-04-24T00:54:19;6.63;;;2.10;;
70052;SDS011;57398;52.032;4.376;2023-04-24T00:57:08;6.20;;;1.75;;
70052;SDS011;57398;52.032;4.376;2023-04-24T00:59:56;6.55;;;1.75;;
70052;SDS011;57398;52.032;4.376;2023-04-24T01:02:45;7.27;;;1.77;;
70052;SDS011;57398;52.032;4.376;2023-04-24T01:05:34;5.55;;;1.38;;
70052;SDS011;57398;52.032;4.376;2023-04-24T01:08:24;7.35;;;1.88;;
70052;SDS011;57398;52.032;4.376;2023-04-24T01:11:14;6.47;;;1.83;;
70052;SDS011;57398;52.032;4.376;2023-04-24T01:14:02;6.13;;;1.90;;
70052;SDS011;57398;52.032;4.376;2023-04-24T01:16:50;8.30;;;2.07;;
70052;SDS011;57398;52.032;4.376;2023-04-24T01:19:38;7.25;;;2.47;;
70052;SDS011;57398;52.032;4.376;2023-04-24T01:22:29;8.23;;;2.10;;
70052;SDS011;57398;52.032;4.376;2023-04-24T01:25:17;7.60;;;2.30;;
70052;SDS011;57398;52.032;4.376;2023-04-24T01:28:07;7.13;;;2.28;;
70052;SDS011;57398;52.032;4.376;2023-04-24T01:30:55;6.40;;;2.40;;
70052;SDS011;57398;52.032;4.376;2023-04-24T01:33:44;8.10;;;2.63;;
70052;SDS011;57398;52.032;4.376;2023-04-24T01:36:32;6.40;;;2.42;;
70052;SDS011;57398;52.032;4.376;2023-04-24T01:39:24;7.85;;;1.95;;
70052;SDS011;57398;52.032;4.376;2023-04-24T01:42:12;6.40;;;2.40;;
70052;SDS011;57398;52.032;4.376;2023-04-24T01:45:02;6.30;;;2.13;;
70052;SDS011;57398;52.032;4.376;2023-04-24T01:47:52;7.43;;;2.30;;
70052;SDS011;57398;52.032;4.376;2023-04-24T01:50:40;9.15;;;2.03;;
70052;SDS011;57398;52.032;4.376;2023-04-24T01:53:28;7.22;;;1.95;;
70052;SDS011;57398;52.032;4.376;2023-04-24T01:56:18;6.22;;;1.60;;
70052;SDS011;57398;52.032;4.376;2023-04-24T01:59:08;5.90;;;1.70;;
70052;SDS011;57398;52.032;4.376;2023-04-24T02:01:58;5.60;;;1.55;;
70052;SDS011;57398;52.032;4.376;2023-04-24T02:04:47;4.93;;;1.55;;
70052;SDS011;57398;52.032;4.376;2023-04-24T02:07:35;5.13;;;1.92;;
70052;SDS011;57398;52.032;4.376;2023-04-24T02:10:24;5.47;;;1.55;;
70052;SDS011;57398;52.032;4.376;2023-04-24T02:13:14;6.17;;;1.60;;
70052;SDS011;57398;52.032;4.376;2023-04-24T02:16:02;6.90;;;1.50;;
70052;SDS011;57398;52.032;4.376;2023-04-24T02:18:50;4.63;;;1.50;;
70052;SDS011;57398;52.032;4.376;2023-04-24T02:21:39;4.95;;;1.50;;
70052;SDS011;57398;52.032;4.376;2023-04-24T02:24:27;4.97;;;1.25;;
70052;SDS011;57398;52.032;4.376;2023-04-24T02:27:15;6.70;;;1.40;;
70052;SDS011;57398;52.032;4.376;2023-04-24T02:30:05;3.80;;;0.90;;
70052;SDS011;57398;52.032;4.376;2023-04-24T02:32:55;5.13;;;1.08;;
70052;SDS011;57398;52.032;4.376;2023-04-24T02:35:43;3.80;;;0.90;;
70052;SDS011;57398;52.032;4.376;2023-04-24T02:38:31;4.63;;;1.08;;
70052;SDS011;57398;52.032;4.376;2023-04-24T02:41:19;3.10;;;0.67;;
70052;SDS011;57398;52.032;4.376;2023-04-24T02:44:07;3.85;;;0.73;;
70052;SDS011;57398;52.032;4.376;2023-04-24T02:46:57;4.60;;;0.88;;
70052;SDS011;57398;52.032;4.376;2023-04-24T02:49:45;3.92;;;0.80;;
70052;SDS011;57398;52.032;4.376;2023-04-24T02:52:33;4.45;;;1.25;;
70052;SDS011;57398;52.032;4.376;2023-04-24T02:55:22;4.43;;;0.93;;
70052;SDS011;57398;52.032;4.376;2023-04-24T02:58:11;5.18;;;1.00;;
70052;SDS011;57398;52.032;4.376;2023-04-24T03:01:00;4.45;;;1.17;;
70052;SDS011;57398;52.032;4.376;2023-04-24T03:03:50;2.92;;;1.02;;
70052;SDS011;57398;52.032;4.376;2023-04-24T03:06:39;4.22;;;1.23;;
70052;SDS011;57398;52.032;4.376;2023-04-24T03:09:27;4.23;;;1.00;;
70052;SDS011;57398;52.032;4.376;2023-04-24T03:12:15;3.47;;;1.00;;
70052;SDS011;57398;52.032;4.376;2023-04-24T03:15:05;3.67;;;1.10;;
70052;SDS011;57398;52.032;4.376;2023-04-24T03:17:54;3.00;;;0.80;;
70052;SDS011;57398;52.032;4.376;2023-04-24T03:20:43;2.90;;;0.90;;
70052;SDS011;57398;52.032;4.376;2023-04-24T03:23:33;3.70;;;1.00;;
70052;SDS011;57398;52.032;4.376;2023-04-24T03:26:22;2.50;;;0.60;;
70052;SDS011;57398;52.032;4.376;2023-04-24T03:29:10;2.17;;;0.70;;
70052;SDS011;57398;52.032;4.376;2023-04-24T03:31:58;3.38;;;0.70;;
70052;SDS011;57398;52.032;4.376;2023-04-24T03:34:47;2.67;;;0.73;;
70052;SDS011;57398;52.032;4.376;2023-04-24T03:37:37;4.77;;;1.00;;
70052;SDS011;57398;52.032;4.376;2023-04-24T03:40:25;4.35;;;0.85;;
70052;SDS011;57398;52.032;4.376;2023-04-24T03:43:15;3.95;;;0.90;;
70052;SDS011;57398;52.032;4.376;2023-04-24T03:46:03;2.92;;;0.90;;
70052;SDS011;57398;52.032;4.376;2023-04-24T03:48:51;4.22;;;0.98;;
70052;SDS011;57398;52.032;4.376;2023-04-24T03:51:40;3.23;;;1.00;;
70052;SDS011;57398;52.032;4.376;2023-04-24T03:54:29;5.80;;;1.20;;
70052;SDS011;57398;52.032;4.376;2023-04-24T03:57:18;3.83;;;1.23;;
70052;SDS011;57398;52.032;4.376;2023-04-24T04:00:07;5.65;;;1.48;;
70052;SDS011;57398;52.032;4.376;2023-04-24T04:02:56;5.90;;;1.50;;
70052;SDS011;57398;52.032;4.376;2023-04-24T04:05:44;5.57;;;1.70;;
70052;SDS011;57398;52.032;4.376;2023-04-24T04:08:32;3.63;;;1.40;;
70052;SDS011;57398;52.032;4.376;2023-04-24T04:11:22;4.25;;;1.80;;
70052;SDS011;57398;52.032;4.376;2023-04-24T04:14:11;5.90;;;2.10;;
70052;SDS011;57398;52.032;4.376;2023-04-24T04:16:59;8.02;;;2.58;;
70052;SDS011;57398;52.032;4.376;2023-04-24T04:19:47;6.87;;;2.53;;
70052;SDS011;57398;52.032;4.376;2023-04-24T04:22:36;7.85;;;2.92;;
70052;SDS011;57398;52.032;4.376;2023-04-24T04:25:24;10.52;;;4.10;;
70052;SDS011;57398;52.032;4.376;2023-04-24T04:28:14;10.27;;;3.95;;
70052;SDS011;57398;52.032;4.376;2023-04-24T04:31:06;6.10;;;2.58;;
70052;SDS011;57398;52.032;4.376;2023-04-24T04:33:56;10.03;;;3.20;;
70052;SDS011;57398;52.032;4.376;2023-04-24T04:36:44;8.98;;;3.40;;
70052;SDS011;57398;52.032;4.376;2023-04-24T04:39:32;9.52;;;3.30;;
70052;SDS011;57398;52.032;4.376;2023-04-24T04:42:21;11.45;;;4.35;;
70052;SDS011;57398;52.032;4.376;2023-04-24T04:45:11;11.82;;;4.43;;
70052;SDS011;57398;52.032;4.376;2023-04-24T04:48:00;19.23;;;7.33;;
70052;SDS011;57398;52.032;4.376;2023-04-24T04:50:49;19.80;;;7.70;;
70052;SDS011;57398;52.032;4.376;2023-04-24T04:53:37;19.17;;;7.45;;
70052;SDS011;57398;52.032;4.376;2023-04-24T04:56:26;21.48;;;8.90;;
70052;SDS011;57398;52.032;4.376;2023-04-24T04:59:14;18.85;;;7.78;;
70052;SDS011;57398;52.032;4.376;2023-04-24T05:02:04;18.10;;;7.63;;
70052;SDS011;57398;52.032;4.376;2023-04-24T05:04:52;16.10;;;6.15;;
70052;SDS011;57398;52.032;4.376;2023-04-24T05:07:41;18.85;;;6.72;;
70052;SDS011;57398;52.032;4.376;2023-04-24T05:10:29;15.30;;;7.20;;
70052;SDS011;57398;52.032;4.376;2023-04-24T05:13:17;18.73;;;6.43;;
70052;SDS011;57398;52.032;4.376;2023-04-24T05:16:14;15.60;;;7.00;;
70052;SDS011;57398;52.032;4.376;2023-04-24T05:19:03;14.07;;;7.22;;
70052;SDS011;57398;52.032;4.376;2023-04-24T05:21:52;21.77;;;7.43;;
70052;SDS011;57398;52.032;4.376;2023-04-24T05:24:40;17.98;;;7.28;;
70052;SDS011;57398;52.032;4.376;2023-04-24T05:27:28;12.95;;;5.40;;
70052;SDS011;57398;52.032;4.376;2023-04-24T05:30:16;14.43;;;6.43;;
70052;SDS011;57398;52.032;4.376;2023-04-24T05:33:04;19.67;;;7.35;;
70052;SDS011;57398;52.032;4.376;2023-04-24T05:35:54;20.50;;;6.38;;
70052;SDS011;57398;52.032;4.376;2023-04-24T05:38:42;17.17;;;5.85;;
70052;SDS011;57398;52.032;4.376;2023-04-24T05:41:31;17.58;;;6.40;;
70052;SDS011;57398;52.032;4.376;2023-04-24T05:44:19;17.50;;;6.57;;
70052;SDS011;57398;52.032;4.376;2023-04-24T05:47:07;19.60;;;7.53;;
70052;SDS011;57398;52.032;4.376;2023-04-24T05:49:56;20.65;;;6.15;;
70052;SDS011;57398;52.032;4.376;2023-04-24T05:52:46;15.85;;;5.63;;
70052;SDS011;57398;52.032;4.376;2023-04-24T05:55:34;16.98;;;5.60;;
70052;SDS011;57398;52.032;4.376;2023-04-24T05:58:22;16.13;;;6.47;;
70052;SDS011;57398;52.032;4.376;2023-04-24T06:01:11;13.32;;;4.78;;
70052;SDS011;57398;52.032;4.376;2023-04-24T06:03:59;16.00;;;5.63;;
70052;SDS011;57398;52.032;4.376;2023-04-24T06:06:47;13.38;;;4.80;;
70052;SDS011;57398;52.032;4.376;2023-04-24T06:09:38;18.77;;;4.60;;
70052;SDS011;57398;52.032;4.376;2023-04-24T06:12:26;13.87;;;4.20;;
70052;SDS011;57398;52.032;4.376;2023-04-24T06:15:17;10.95;;;3.88;;
70052;SDS011;57398;52.032;4.376;2023-04-24T06:18:06;13.25;;;4.22;;
70052;SDS011;57398;52.032;4.376;2023-04-24T06:20:56;11.73;;;3.88;;
70052;SDS011;57398;52.032;4.376;2023-04-24T06:23:44;14.95;;;4.63;;
70052;SDS011;57398;52.032;4.376;2023-04-24T06:26:34;10.90;;;3.70;;
70052;SDS011;57398;52.032;4.376;2023-04-24T06:29:23;9.77;;;3.20;;
70052;SDS011;57398;52.032;4.376;2023-04-24T06:32:11;11.38;;;3.92;;
70052;SDS011;57398;52.032;4.376;2023-04-24T06:34:59;9.55;;;2.92;;
70052;SDS011;57398;52.032;4.376;2023-04-24T06:37:48;11.13;;;3.63;;
70052;SDS011;57398;52.032;4.376;2023-04-24T06:40:37;14.90;;;3.57;;
70052;SDS011;57398;52.032;4.376;2023-04-24T06:43:27;13.48;;;4.30;;
70052;SDS011;57398;52.032;4.376;2023-04-24T06:46:15;18.05;;;3.45;;
70052;SDS011;57398;52.032;4.376;2023-04-24T06:49:04;14.15;;;3.55;;
70052;SDS011;57398;52.032;4.376;2023-04-24T06:51:52;13.82;;;3.10;;
70052;SDS011;57398;52.032;4.376;2023-04-24T06:54:41;10.07;;;2.90;;
70052;SDS011;57398;52.032;4.376;2023-04-24T06:57:29;13.18;;;2.63;;
70052;SDS011;57398;52.032;4.376;2023-04-24T07:00:19;15.85;;;3.28;;
70052;SDS011;57398;52.032;4.376;2023-04-24T07:03:07;12.25;;;2.55;;
70052;SDS011;57398;52.032;4.376;2023-04-24T07:05:56;11.23;;;2.40;;
70052;SDS011;57398;52.032;4.376;2023-04-24T07:08:45;13.60;;;3.03;;
70052;SDS011;57398;52.032;4.376;2023-04-24T07:11:33;11.23;;;2.00;;
70052;SDS011;57398;52.032;4.376;2023-04-24T07:14:24;9.30;;;2.38;;
70052;SDS011;57398;52.032;4.376;2023-04-24T07:17:14;8.27;;;1.88;;
70052;SDS011;57398;52.032;4.376;2023-04-24T07:20:05;7.85;;;1.63;;
70052;SDS011;57398;52.032;4.376;2023-04-24T07:22:56;12.63;;;2.50;;
70052;SDS011;57398;52.032;4.376;2023-04-24T07:25:46;12.18;;;2.55;;
70052;SDS011;57398;52.032;4.376;2023-04-24T07:28:34;11.25;;;2.35;;
70052;SDS011;57398;52.032;4.376;2023-04-24T07:31:23;13.48;;;2.90;;
70052;SDS011;57398;52.032;4.376;2023-04-24T07:34:13;9.13;;;1.95;;
70052;SDS011;57398;52.032;4.376;2023-04-24T07:37:01;10.43;;;2.20;;
70052;SDS011;57398;52.032;4.376;2023-04-24T07:39:50;6.75;;;2.28;;
70052;SDS011;57398;52.032;4.376;2023-04-24T07:42:38;7.85;;;2.15;;
70052;SDS011;57398;52.032;4.376;2023-04-24T07:45:26;10.60;;;2.33;;
70052;SDS011;57398;52.032;4.376;2023-04-24T07:48:15;5.35;;;1.65;;
70052;SDS011;57398;52.032;4.376;2023-04-24T07:51:05;7.90;;;2.40;;
70052;SDS011;57398;52.032;4.376;2023-04-24T07:53:54;9.50;;;2.92;;
70052;SDS011;57398;52.032;4.376;2023-04-24T07:56:43;11.15;;;2.00;;
70052;SDS011;57398;52.032;4.376;2023-04-24T07:59:31;7.63;;;1.88;;
70052;SDS011;57398;52.032;4.376;2023-04-24T08:02:19;8.00;;;1.63;;
70052;SDS011;57398;52.032;4.376;2023-04-24T08:05:12;8.43;;;1.90;;
70052;SDS011;57398;52.032;4.376;2023-04-24T08:08:02;7.03;;;1.65;;
70052;SDS011;57398;52.032;4.376;2023-04-24T08:10:50;6.40;;;2.00;;
70052;SDS011;57398;52.032;4.376;2023-04-24T08:13:38;7.25;;;1.75;;
70052;SDS011;57398;52.032;4.376;2023-04-24T08:16:27;4.57;;;1.30;;
70052;SDS011;57398;52.032;4.376;2023-04-24T08:19:15;5.30;;;1.50;;
70052;SDS011;57398;52.032;4.376;2023-04-24T08:22:03;6.95;;;1.80;;
70052;SDS011;57398;52.032;4.376;2023-04-24T08:24:53;5.75;;;2.30;;
70052;SDS011;57398;52.032;4.376;2023-04-24T08:27:42;5.85;;;1.60;;
70052;SDS011;57398;52.032;4.376;2023-04-24T08:30:30;4.80;;;1.52;;
70052;SDS011;57398;52.032;4.376;2023-04-24T08:33:19;4.73;;;1.60;;
70052;SDS011;57398;52.032;4.376;2023-04-24T08:36:07;5.05;;;1.58;;
70052;SDS011;57398;52.032;4.376;2023-04-24T08:38:55;6.00;;;1.58;;
70052;SDS011;57398;52.032;4.376;2023-04-24T08:41:45;5.03;;;1.33;;
70052;SDS011;57398;52.032;4.376;2023-04-24T08:44:33;7.05;;;1.20;;
70052;SDS011;57398;52.032;4.376;2023-04-24T08:47:23;4.50;;;1.37;;
70052;SDS011;57398;52.032;4.376;2023-04-24T08:50:14;5.03;;;1.20;;
70052;SDS011;57398;52.032;4.376;2023-04-24T08:53:02;4.95;;;1.00;;
70052;SDS011;57398;52.032;4.376;2023-04-24T08:55:51;4.05;;;1.00;;
70052;SDS011;57398;52.032;4.376;2023-04-24T08:58:44;5.60;;;1.60;;
70052;SDS011;57398;52.032;4.376;2023-04-24T09:01:33;4.93;;;1.07;;
70052;SDS011;57398;52.032;4.376;2023-04-24T09:04:23;3.70;;;1.38;;
70052;SDS011;57398;52.032;4.376;2023-04-24T09:07:14;5.80;;;1.10;;
70052;SDS011;57398;52.032;4.376;2023-04-24T09:10:05;6.00;;;1.20;;
70052;SDS011;57398;52.032;4.376;2023-04-24T09:12:55;5.35;;;1.48;;
70052;SDS011;57398;52.032;4.376;2023-04-24T09:15:46;6.90;;;1.40;;
70052;SDS011;57398;52.032;4.376;2023-04-24T09:18:34;4.57;;;1.50;;
70052;SDS011;57398;52.032;4.376;2023-04-24T09:21:22;5.00;;;1.20;;
70052;SDS011;57398;52.032;4.376;2023-04-24T09:24:14;4.40;;;1.00;;
70052;SDS011;57398;52.032;4.376;2023-04-24T09:27:04;7.38;;;1.00;;
70052;SDS011;57398;52.032;4.376;2023-04-24T09:29:53;4.33;;;0.90;;
70052;SDS011;57398;52.032;4.376;2023-04-24T09:32:44;3.65;;;1.00;;
70052;SDS011;57398;52.032;4.376;2023-04-24T09:35:32;5.90;;;1.00;;
70052;SDS011;57398;52.032;4.376;2023-04-24T09:38:22;4.10;;;1.00;;
70052;SDS011;57398;52.032;4.376;2023-04-24T09:41:21;3.40;;;0.80;;
70052;SDS011;57398;52.032;4.376;2023-04-24T09:44:11;6.80;;;1.43;;
70052;SDS011;57398;52.032;4.376;2023-04-24T09:47:00;6.45;;;1.13;;
70052;SDS011;57398;52.032;4.376;2023-04-24T09:49:50;5.38;;;1.08;;
70052;SDS011;57398;52.032;4.376;2023-04-24T09:52:44;6.22;;;0.98;;
70052;SDS011;57398;52.032;4.376;2023-04-24T09:55:35;3.53;;;0.82;;
70052;SDS011;57398;52.032;4.376;2023-04-24T09:58:27;4.43;;;0.90;;
70052;SDS011;57398;52.032;4.376;2023-04-24T10:01:16;3.70;;;0.93;;
70052;SDS011;57398;52.032;4.376;2023-04-24T10:04:18;3.97;;;0.68;;
70052;SDS011;57398;52.032;4.376;2023-04-24T10:07:09;4.95;;;0.95;;
70052;SDS011;57398;52.032;4.376;2023-04-24T10:09:57;3.47;;;0.55;;
70052;SDS011;57398;52.032;4.376;2023-04-24T10:12:46;4.33;;;1.00;;
70052;SDS011;57398;52.032;4.376;2023-04-24T10:15:34;5.20;;;1.20;;
70052;SDS011;57398;52.032;4.376;2023-04-24T10:18:23;3.13;;;0.80;;
70052;SDS011;57398;52.032;4.376;2023-04-24T10:21:12;5.05;;;0.90;;
70052;SDS011;57398;52.032;4.376;2023-04-24T10:24:03;7.20;;;1.55;;
70052;SDS011;57398;52.032;4.376;2023-04-24T10:26:53;7.20;;;1.23;;
70052;SDS011;57398;52.032;4.376;2023-04-24T10:29:43;14.77;;;1.20;;
70052;SDS011;57398;52.032;4.376;2023-04-24T10:32:33;4.10;;;1.00;;
70052;SDS011;57398;52.032;4.376;2023-04-24T10:35:21;4.63;;;1.20;;
70052;SDS011;57398;52.032;4.376;2023-04-24T10:38:13;4.22;;;1.00;;
70052;SDS011;57398;52.032;4.376;2023-04-24T10:41:11;4.27;;;1.10;;
70052;SDS011;57398;52.032;4.376;2023-04-24T10:44:06;5.70;;;1.30;;
70052;SDS011;57398;52.032;4.376;2023-04-24T10:46:54;5.40;;;1.13;;
70052;SDS011;57398;52.032;4.376;2023-04-24T10:49:43;2.63;;;0.85;;
70052;SDS011;57398;52.032;4.376;2023-04-24T10:52:43;3.22;;;1.10;;
70052;SDS011;57398;52.032;4.376;2023-04-24T10:58:40;2.20;;;0.80;;
70052;SDS011;57398;52.032;4.376;2023-04-24T11:01:31;4.82;;;1.00;;
70052;SDS011;57398;52.032;4.376;2023-04-24T11:04:28;3.35;;;0.70;;
70052;SDS011;57398;52.032;4.376;2023-04-24T11:07:17;3.00;;;1.00;;
70052;SDS011;57398;52.032;4.376;2023-04-24T11:10:05;5.17;;;0.80;;
70052;SDS011;57398;52.032;4.376;2023-04-24T11:12:54;1.90;;;0.90;;
70052;SDS011;57398;52.032;4.376;2023-04-24T11:15:43;4.43;;;0.90;;
70052;SDS011;57398;52.032;4.376;2023-04-24T11:18:36;5.03;;;1.05;;
70052;SDS011;57398;52.032;4.376;2023-04-24T11:21:27;5.22;;;1.08;;
70052;SDS011;57398;52.032;4.376;2023-04-24T11:27:38;4.70;;;0.90;;
70052;SDS011;57398;52.032;4.376;2023-04-24T11:30:28;4.55;;;1.20;;
70052;SDS011;57398;52.032;4.376;2023-04-24T11:33:20;7.38;;;1.60;;
70052;SDS011;57398;52.032;4.376;2023-04-24T11:36:08;7.15;;;1.33;;
70052;SDS011;57398;52.032;4.376;2023-04-24T11:38:57;5.90;;;1.63;;
70052;SDS011;57398;52.032;4.376;2023-04-24T11:41:45;5.68;;;1.17;;
70052;SDS011;57398;52.032;4.376;2023-04-24T11:44:34;4.82;;;1.42;;
70052;SDS011;57398;52.032;4.376;2023-04-24T11:47:30;5.00;;;1.10;;
70052;SDS011;57398;52.032;4.376;2023-04-24T11:50:22;6.82;;;1.75;;
70052;SDS011;57398;52.032;4.376;2023-04-24T11:53:12;4.40;;;1.40;;
70052;SDS011;57398;52.032;4.376;2023-04-24T11:56:02;6.30;;;1.45;;
70052;SDS011;57398;52.032;4.376;2023-04-24T11:58:51;6.60;;;1.63;;
70052;SDS011;57398;52.032;4.376;2023-04-24T12:01:43;5.65;;;1.33;;
70052;SDS011;57398;52.032;4.376;2023-04-24T12:04:38;4.07;;;1.30;;
70052;SDS011;57398;52.032;4.376;2023-04-24T12:07:29;5.47;;;1.70;;
70052;SDS011;57398;52.032;4.376;2023-04-24T12:10:29;5.97;;;1.77;;
70052;SDS011;57398;52.032;4.376;2023-04-24T12:13:18;6.57;;;1.83;;
70052;SDS011;57398;52.032;4.376;2023-04-24T12:16:06;6.68;;;1.90;;
70052;SDS011;57398;52.032;4.376;2023-04-24T12:18:55;7.20;;;2.00;;
70052;SDS011;57398;52.032;4.376;2023-04-24T12:21:58;13.40;;;2.07;;
70052;SDS011;57398;52.032;4.376;2023-04-24T12:24:59;10.77;;;2.50;;
70052;SDS011;57398;52.032;4.376;2023-04-24T12:27:52;9.68;;;2.22;;
70052;SDS011;57398;52.032;4.376;2023-04-24T12:30:42;10.98;;;2.15;;
70052;SDS011;57398;52.032;4.376;2023-04-24T12:33:32;6.70;;;2.20;;
70052;SDS011;57398;52.032;4.376;2023-04-24T12:36:21;7.00;;;1.77;;
70052;SDS011;57398;52.032;4.376;2023-04-24T12:39:14;9.02;;;1.92;;
70052;SDS011;57398;52.032;4.376;2023-04-24T12:42:03;8.98;;;1.73;;
70052;SDS011;57398;52.032;4.376;2023-04-24T12:44:55;11.15;;;3.05;;
70052;SDS011;57398;52.032;4.376;2023-04-24T12:47:45;9.82;;;2.33;;
70052;SDS011;57398;52.032;4.376;2023-04-24T12:50:34;7.10;;;1.83;;
70052;SDS011;57398;52.032;4.376;2023-04-24T12:53:22;7.75;;;2.00;;
70052;SDS011;57398;52.032;4.376;2023-04-24T12:56:13;9.70;;;2.30;;
70052;SDS011;57398;52.032;4.376;2023-04-24T12:59:02;7.78;;;2.42;;
70052;SDS011;57398;52.032;4.376;2023-04-24T13:01:51;7.57;;;2.20;;
70052;SDS011;57398;52.032;4.376;2023-04-24T13:04:39;8.30;;;2.27;;
70052;SDS011;57398;52.032;4.376;2023-04-24T13:07:27;8.10;;;2.38;;
70052;SDS011;57398;52.032;4.376;2023-04-24T13:10:15;7.63;;;2.00;;
70052;SDS011;57398;52.032;4.376;2023-04-24T13:13:04;6.13;;;2.63;;
70052;SDS011;57398;52.032;4.376;2023-04-24T13:15:53;7.53;;;2.60;;
70052;SDS011;57398;52.032;4.376;2023-04-24T13:18:41;10.17;;;2.37;;
70052;SDS011;57398;52.032;4.376;2023-04-24T13:21:30;6.53;;;1.98;;
70052;SDS011;57398;52.032;4.376;2023-04-24T13:24:18;7.93;;;1.90;;
70052;SDS011;57398;52.032;4.376;2023-04-24T13:27:07;8.95;;;2.20;;
70052;SDS011;57398;52.032;4.376;2023-04-24T13:29:56;10.15;;;2.35;;
70052;SDS011;57398;52.032;4.376;2023-04-24T13:32:46;6.43;;;2.03;;
70052;SDS011;57398;52.032;4.376;2023-04-24T13:35:34;9.98;;;3.15;;
70052;SDS011;57398;52.032;4.376;2023-04-24T13:38:23;9.73;;;2.63;;
70052;SDS011;57398;52.032;4.376;2023-04-24T13:41:11;6.57;;;2.13;;
70052;SDS011;57398;52.032;4.376;2023-04-24T13:43:59;7.13;;;2.30;;
70052;SDS011;57398;52.032;4.376;2023-04-24T13:46:48;5.27;;;1.77;;
70052;SDS011;57398;52.032;4.376;2023-04-24T13:49:39;9.93;;;2.35;;
70052;SDS011;57398;52.032;4.376;2023-04-24T13:52:27;7.45;;;2.05;;
70052;SDS011;57398;52.032;4.376;2023-04-24T13:55:16;7.70;;;2.67;;
70052;SDS011;57398;52.032;4.376;2023-04-24T13:58:04;8.88;;;2.40;;
70052;SDS011;57398;52.032;4.376;2023-04-24T14:00:53;13.13;;;2.80;;
70052;SDS011;57398;52.032;4.376;2023-04-24T14:03:41;6.82;;;2.08;;
70052;SDS011;57398;52.032;4.376;2023-04-24T14:06:31;11.00;;;2.70;;
70052;SDS011;57398;52.032;4.376;2023-04-24T14:09:19;9.57;;;2.60;;
70052;SDS011;57398;52.032;4.376;2023-04-24T14:12:08;9.18;;;2.60;;
70052;SDS011;57398;52.032;4.376;2023-04-24T14:14:56;7.73;;;2.27;;
70052;SDS011;57398;52.032;4.376;2023-04-24T14:17:44;8.52;;;2.40;;
70052;SDS011;57398;52.032;4.376;2023-04-24T14:20:32;7.10;;;2.03;;
70052;SDS011;57398;52.032;4.376;2023-04-24T14:23:22;7.82;;;2.53;;
70052;SDS011;57398;52.032;4.376;2023-04-24T14:26:11;8.15;;;2.90;;
70052;SDS011;57398;52.032;4.376;2023-04-24T14:28:59;9.20;;;2.60;;
70052;SDS011;57398;52.032;4.376;2023-04-24T14:32:00;9.75;;;2.92;;
70052;SDS011;57398;52.032;4.376;2023-04-24T14:34:48;11.10;;;2.67;;
70052;SDS011;57398;52.032;4.376;2023-04-24T14:37:36;10.35;;;2.65;;
70052;SDS011;57398;52.032;4.376;2023-04-24T14:40:29;7.80;;;2.40;;
70052;SDS011;57398;52.032;4.376;2023-04-24T14:43:37;8.83;;;2.40;;
70052;SDS011;57398;52.032;4.376;2023-04-24T14:46:25;9.38;;;2.50;;
70052;SDS011;57398;52.032;4.376;2023-04-24T14:49:14;10.27;;;2.20;;
70052;SDS011;57398;52.032;4.376;2023-04-24T14:52:02;9.50;;;2.55;;
70052;SDS011;57398;52.032;4.376;2023-04-24T14:54:50;6.82;;;1.92;;
70052;SDS011;57398;52.032;4.376;2023-04-24T14:57:39;5.60;;;1.90;;
70052;SDS011;57398;52.032;4.376;2023-04-24T15:00:28;9.75;;;2.50;;
70052;SDS011;57398;52.032;4.376;2023-04-24T15:03:17;8.63;;;2.85;;
70052;SDS011;57398;52.032;4.376;2023-04-24T15:06:07;7.82;;;2.30;;
70052;SDS011;57398;52.032;4.376;2023-04-24T15:08:55;9.27;;;2.65;;
70052;SDS011;57398;52.032;4.376;2023-04-24T15:11:43;11.07;;;2.50;;
70052;SDS011;57398;52.032;4.376;2023-04-24T15:14:33;8.52;;;2.55;;
70052;SDS011;57398;52.032;4.376;2023-04-24T15:17:21;10.65;;;2.75;;
70052;SDS011;57398;52.032;4.376;2023-04-24T15:20:09;10.77;;;3.20;;
70052;SDS011;57398;52.032;4.376;2023-04-24T15:22:57;9.77;;;3.20;;
70052;SDS011;57398;52.032;4.376;2023-04-24T15:25:47;7.47;;;2.73;;
70052;SDS011;57398;52.032;4.376;2023-04-24T15:28:35;9.80;;;2.30;;
70052;SDS011;57398;52.032;4.376;2023-04-24T15:31:25;10.43;;;2.50;;
70052;SDS011;57398;52.032;4.376;2023-04-24T15:34:13;8.45;;;2.25;;
70052;SDS011;57398;52.032;4.376;2023-04-24T15:37:01;9.02;;;2.70;;
70052;SDS011;57398;52.032;4.376;2023-04-24T15:39:49;8.60;;;2.73;;
70052;SDS011;57398;52.032;4.376;2023-04-24T15:42:37;9.02;;;2.88;;
70052;SDS011;57398;52.032;4.376;2023-04-24T15:45:26;8.93;;;2.17;;
70052;SDS011;57398;52.032;4.376;2023-04-24T15:48:16;6.90;;;2.60;;
70052;SDS011;57398;52.032;4.376;2023-04-24T15:51:04;8.25;;;2.63;;
70052;SDS011;57398;52.032;4.376;2023-04-24T15:53:52;10.10;;;2.47;;
70052;SDS011;57398;52.032;4.376;2023-04-24T15:56:40;10.30;;;2.83;;
70052;SDS011;57398;52.032;4.376;2023-04-24T15:59:30;9.05;;;2.63;;
70052;SDS011;57398;52.032;4.376;2023-04-24T16:02:18;9.63;;;3.10;;
70052;SDS011;57398;52.032;4.376;2023-04-24T16:05:08;7.40;;;2.78;;
70052;SDS011;57398;52.032;4.376;2023-04-24T16:07:57;9.23;;;3.23;;
70052;SDS011;57398;52.032;4.376;2023-04-24T16:10:45;7.63;;;2.30;;
70052;SDS011;57398;52.032;4.376;2023-04-24T16:13:33;12.82;;;3.10;;
70052;SDS011;57398;52.032;4.376;2023-04-24T16:16:22;7.63;;;2.90;;
70052;SDS011;57398;52.032;4.376;2023-04-24T16:19:10;8.05;;;2.00;;
70052;SDS011;57398;52.032;4.376;2023-04-24T16:22:00;9.63;;;2.70;;
70052;SDS011;57398;52.032;4.376;2023-04-24T16:24:49;8.85;;;2.63;;
70052;SDS011;57398;52.032;4.376;2023-04-24T16:27:37;9.43;;;2.80;;
70052;SDS011;57398;52.032;4.376;2023-04-24T16:30:25;7.90;;;3.03;;
70052;SDS011;57398;52.032;4.376;2023-04-24T16:33:13;13.30;;;2.90;;
70052;SDS011;57398;52.032;4.376;2023-04-24T16:36:01;10.73;;;2.80;;
70052;SDS011;57398;52.032;4.376;2023-04-24T16:38:54;11.90;;;2.50;;
70052;SDS011;57398;52.032;4.376;2023-04-24T16:41:42;10.55;;;2.75;;
70052;SDS011;57398;52.032;4.376;2023-04-24T16:44:30;10.40;;;2.55;;
70052;SDS011;57398;52.032;4.376;2023-04-24T16:47:19;11.02;;;3.20;;
70052;SDS011;57398;52.032;4.376;2023-04-24T16:50:07;7.33;;;2.53;;
70052;SDS011;57398;52.032;4.376;2023-04-24T16:52:58;9.18;;;2.45;;
70052;SDS011;57398;52.032;4.376;2023-04-24T16:55:47;14.00;;;3.30;;
70052;SDS011;57398;52.032;4.376;2023-04-24T16:58:36;8.57;;;2.47;;
70052;SDS011;57398;52.032;4.376;2023-04-24T17:01:25;9.00;;;2.33;;
70052;SDS011;57398;52.032;4.376;2023-04-24T17:04:13;6.23;;;1.97;;